Nearby METAR Reports

 

LIBV - Gioia Del Colle, Italy
Distance from station: PdPdWs 15km
Aktualizacja: 26/06/2019 13:55
Few Clouds
Few Clouds
 Wiatr z Pn
Wiatr: Pn 24 km/h
Temperatura: 28°C
Heat Index: 28°C
Punkt Rosy: 16°C
Wilgotność: 48%
Clouds: Few Clouds
Visibility: 10 km
Cloud details: Few Clouds 914 m
2019/06/26 11:55 LIBV 261155Z 36013KT 9999 FEW030 28/16 Q//// RMK FEW VIS MIN 9999 WIND THR32 02012KT WIND THR14 36014KT BLU
LIBD - Bari/Palese Macc, Italy
Distance from station: PnPnZd 26km
Aktualizacja: 26/06/2019 14:50
Bezchmurnie
Bezchmurnie
 Wiatr z PnWs
Wiatr: PnWs 22 km/h
Temperatura: 29°C
Heat Index: 31°C
Punkt Rosy: 21°C
Wilgotność: 62%
Ciśnienie: 1020 hPa
Podsumowanie: Bezchmurnie
Visibility: greater than 10 km
2019/06/26 12:50 LIBD 261250Z 04012KT CAVOK 29/21 Q1020
 
LIBH - Marina Di Ginosa, Italy
Distance from station: Pd 53km
Aktualizacja: 26/06/2019 13:55
Few Clouds
Few Clouds
 Wiatr z PnPnZd
Wiatr: PnPnZd 24 km/h
Temperatura: 36°C
Punkt Rosy: 20°C
Wilgotność: 39%
Ciśnienie: 1017 hPa
Clouds: Few Clouds
Visibility: 10 km
Cloud details: Few Clouds 762 m
2019/06/26 11:55 LIBH 261155Z 02013KT 9999 FEW025TCU 36/20 Q1017 RMK FEW QUK 3 QUL 2 NE VIS MAR 25 KM VIS MIN 9999
LIBG - Grottaglie(Civ/A, Italy
Distance from station: PdWs 61km
Aktualizacja: 26/06/2019 13:50
Bezchmurnie
Bezchmurnie
 Wiatr z PnPnZd
Wiatr: PnPnZd 30 km/h
Temperatura: 32°C
Heat Index: 34°C
Punkt Rosy: 19°C
Wilgotność: 46%
Ciśnienie: 1017 hPa
Podsumowanie: Bezchmurnie
Visibility: greater than 10 km
2019/06/26 11:50 LIBG 261150Z 02016KT CAVOK 32/19 Q1017
 
LIBR - Brindisi/Casale, Italy
Distance from station: WsPdWs 96km
Aktualizacja: 26/06/2019 14:50
Bezchmurnie
Bezchmurnie
 Wiatr z Pn
Wiatr: Pn 22 km/h
Temperatura: 29°C
Heat Index: 31°C
Punkt Rosy: 20°C
Wilgotność: 58%
Ciśnienie: 1018 hPa
Podsumowanie: Bezchmurnie
Visibility: greater than 10 km
2019/06/26 12:50 LIBR 261250Z 35012KT CAVOK 29/20 Q1018
LIBA - Amendola (it-Afb, Italy
Distance from station: PnZd 118km
Aktualizacja: 26/06/2019 13:55
Few Clouds
Few Clouds
 Wiatr z PnWs
Wiatr: PnWs 17 km/h
Temperatura: 34°C
Punkt Rosy: 15°C
Wilgotność: 32%
Ciśnienie: 1019 hPa
Clouds: Few Clouds
Visibility: 10 km
Cloud details: Few Clouds 1829 m
2019/06/26 11:55 LIBA 261155Z 04009KT 9999 FEW060 34/15 Q1019 RMK FEW VIS MIN 9999 WIND THR11 04009G19KT WIND THR29 /////KT BLU
 
LIBF - Foggia/Gino Lisa, Italy
Distance from station: ZdPnZd 126km
Aktualizacja: 26/06/2019 13:50
Bezchmurnie
Bezchmurnie
 Wiatr z PnPnZd
Wiatr: PnPnZd 33 km/h
Temperatura: 32°C
Heat Index: 33°C
Punkt Rosy: 17°C
Wilgotność: 41%
Ciśnienie: 1019 hPa
Podsumowanie: Bezchmurnie
Visibility: greater than 10 km
2019/06/26 11:50 LIBF 261150Z 33018KT CAVOK 32/17 Q1019
LIBN - Lecce (it-Afb), Italy
Distance from station: PdWs 132km
Aktualizacja: 26/06/2019 13:55
Bezchmurnie
Bezchmurnie
 Wiatr z Pn
Wiatr: Pn 26 km/h
Temperatura: 32°C
Heat Index: 36°C
Punkt Rosy: 21°C
Wilgotność: 52%
Ciśnienie: 1017 hPa
Podsumowanie: Bezchmurnie
Visibility: greater than 10 km
2019/06/26 11:55 LIBN 261155Z 01014KT CAVOK 32/21 Q1017 RMK SCT SCT200 VIS MIN 9999 WIND THR14 01014KT WIND THR32 01014KT BLU